Time;durP1;ratioP1;P1;durP2;ratioP2;P2;SDS_P1;SDS_P2;PMS_P1;PMS_P2;Temp;Humidity;BMP_temperature;BMP_pressure;BME280_temperature;BME280_humidity;BME280_pressure;Samples;Min_cycle;Max_cycle;Signal;HPM_P1;HPM_P2
2021/08/09 00:01:27;;;;;;;3.38;3.17;;;;;;;17.89;93.59;100956.72;6367222;28;20497;-77
2021/08/09 00:04:34;;;;;;;3.58;3.38;;;;;;;17.90;93.08;100947.31;6368140;28;20182;-77
2021/08/09 00:07:41;;;;;;;2.95;2.80;;;;;;;17.91;92.92;100960.88;6368124;28;20181;-77
2021/08/09 00:10:49;;;;;;;3.15;3.05;;;;;;;17.93;92.28;100949.56;6367823;28;20189;-77
2021/08/09 00:13:54;;;;;;;3.38;3.17;;;;;;;17.86;93.67;100965.53;6367653;28;20204;-77
2021/08/09 00:16:58;;;;;;;4.10;3.83;;;;;;;17.95;92.77;100961.19;6366532;28;20414;-77
2021/08/09 00:20:05;;;;;;;3.33;3.22;;;;;;;17.97;92.50;100956.25;6367140;28;20286;-77
2021/08/09 00:23:11;;;;;;;3.22;3.13;;;;;;;18.02;92.18;100956.28;6367829;28;20182;-77
2021/08/09 00:26:16;;;;;;;3.47;3.28;;;;;;;17.98;92.40;100971.69;6367048;28;20186;-77
2021/08/09 00:29:20;;;;;;;3.65;3.42;;;;;;;18.00;92.67;100952.97;6348637;28;20551;-77
2021/08/09 00:32:25;;;;;;;3.33;3.22;;;;;;;17.90;93.35;100958.38;6340482;28;20305;-77
2021/08/09 00:35:31;;;;;;;3.38;3.28;;;;;;;17.83;93.83;100971.56;6339596;28;20551;-77
2021/08/09 00:38:35;;;;;;;3.88;3.60;;;;;;;17.92;93.68;100970.00;6339698;28;20202;-77
2021/08/09 00:41:42;;;;;;;3.90;3.72;;;;;;;17.96;93.60;100979.41;6339899;28;20198;-77
2021/08/09 00:44:47;;;;;;;6.15;4.13;;;;;;;18.03;93.10;100980.03;6339401;28;20206;-77
2021/08/09 00:47:54;;;;;;;5.15;4.85;;;;;;;18.01;93.29;100976.69;6340365;28;20266;-78
2021/08/09 00:50:59;;;;;;;5.30;4.80;;;;;;;18.05;92.91;100983.38;6340382;28;20336;-77
2021/08/09 00:54:05;;;;;;;6.25;4.68;;;;;;;18.10;92.81;100975.94;6339933;28;20199;-77
2021/08/09 00:57:11;;;;;;;5.30;5.00;;;;;;;18.02;93.27;100997.69;6340243;28;20198;-77
2021/08/09 01:00:18;;;;;;;5.90;5.50;;;;;;;18.12;92.76;100989.50;6342388;28;20187;-77
2021/08/09 01:03:23;;;;;;;5.53;5.22;;;;;;;18.11;92.86;100993.34;6339848;28;20244;-78
2021/08/09 01:06:28;;;;;;;5.82;5.63;;;;;;;18.08;92.77;100982.81;6339167;28;20368;-77
2021/08/09 01:09:43;;;;;;;5.97;5.40;;;;;;;18.13;92.64;100985.63;6322805;28;20364;-77
2021/08/09 01:13:00;;;;;;;6.55;5.75;;;;;;;17.94;93.78;100987.97;6322054;28;20199;-77
2021/08/09 01:16:11;;;;;;;7.72;5.57;;;;;;;18.08;92.90;100988.34;6338858;28;20506;-77
2021/08/09 01:19:39;;;;;;;5.82;5.25;;;;;;;18.10;93.03;100991.69;6339114;28;20202;-77
2021/08/09 01:23:00;;;;;;;5.65;5.07;;;;;;;18.17;92.43;100985.94;6339295;28;20243;-77
2021/08/09 01:26:13;;;;;;;5.05;4.65;;;;;;;18.12;92.11;100983.97;6339343;28;20238;-77
2021/08/09 01:29:30;;;;;;;5.65;5.25;;;;;;;18.03;92.78;100991.06;6338459;28;20239;-77
2021/08/09 01:32:39;;;;;;;4.50;4.20;;;;;;;17.99;92.99;100979.72;6324650;28;20423;-77
2021/08/09 01:35:46;;;;;;;4.57;4.32;;;;;;;18.00;93.01;100980.56;6322717;28;20236;-77
2021/08/09 01:38:53;;;;;;;5.00;4.60;;;;;;;18.00;92.85;100986.09;6322454;28;20276;-77
2021/08/09 01:41:59;;;;;;;7.22;4.60;;;;;;;18.03;92.38;100991.06;6339729;28;20205;-77
2021/08/09 01:45:07;;;;;;;4.55;4.35;;;;;;;17.98;93.34;100993.78;6339263;28;20198;-77
2021/08/09 01:48:17;;;;;;;4.28;3.88;;;;;;;18.01;92.94;100996.03;6340212;28;20183;-77
2021/08/09 01:51:22;;;;;;;4.45;4.20;;;;;;;17.94;92.90;100985.22;6340595;28;20207;-77
2021/08/09 01:54:27;;;;;;;4.40;4.30;;;;;;;17.98;92.22;100989.09;6338537;28;20206;-77
2021/08/09 01:57:33;;;;;;;4.80;4.38;;;;;;;17.88;93.20;100977.97;6338827;28;20198;-77
2021/08/09 02:00:40;;;;;;;4.90;4.70;;;;;;;17.82;93.29;100983.72;6338426;28;20203;-77
2021/08/09 02:03:45;;;;;;;4.65;4.38;;;;;;;17.79;93.58;100986.97;6337639;28;20198;-77
2021/08/09 02:06:50;;;;;;;4.20;4.10;;;;;;;17.75;93.50;100986.66;6320688;28;20205;-77
2021/08/09 02:09:55;;;;;;;4.38;4.22;;;;;;;17.69;93.31;100989.66;6320407;28;20259;-77
2021/08/09 02:13:04;;;;;;;4.13;4.03;;;;;;;17.68;93.45;100999.00;6321686;28;20274;-77
2021/08/09 02:16:19;;;;;;;4.10;4.00;;;;;;;17.64;93.33;101003.38;6321536;28;20198;-77
2021/08/09 02:19:40;;;;;;;4.90;4.50;;;;;;;17.63;93.25;101002.53;6320680;28;20203;-78
2021/08/09 02:22:49;;;;;;;4.50;4.05;;;;;;;17.55;93.79;101002.16;6320104;28;20365;-77
2021/08/09 02:25:58;;;;;;;4.60;4.30;;;;;;;17.59;93.39;101000.56;6321029;28;20198;-77
2021/08/09 02:29:07;;;;;;;3.97;3.85;;;;;;;17.59;93.19;101011.59;6320565;28;20206;-77
2021/08/09 02:32:18;;;;;;;4.72;4.32;;;;;;;17.66;92.64;101012.22;6327981;28;20234;-77
2021/08/09 02:35:25;;;;;;;4.82;4.63;;;;;;;17.66;92.52;101023.28;6345928;28;20198;-77
2021/08/09 02:38:33;;;;;;;4.60;4.10;;;;;;;17.62;92.66;101027.63;6345522;28;20381;-77
2021/08/09 02:41:38;;;;;;;5.75;4.22;;;;;;;17.65;92.34;101027.09;6346637;28;20267;-77
2021/08/09 02:44:44;;;;;;;4.32;4.20;;;;;;;17.67;91.78;101013.91;6345229;28;20272;-77
2021/08/09 02:47:51;;;;;;;4.50;4.30;;;;;;;17.67;91.71;101016.66;6345143;28;20269;-77
2021/08/09 02:50:56;;;;;;;4.85;4.65;;;;;;;17.61;92.16;101021.28;6345507;28;20521;-77
2021/08/09 02:54:02;;;;;;;4.55;4.28;;;;;;;17.49;92.67;101024.16;6345454;28;20394;-77
2021/08/09 02:57:10;;;;;;;4.13;3.92;;;;;;;17.44;92.58;101015.81;6344674;28;20492;-77
2021/08/09 03:00:15;;;;;;;4.32;4.22;;;;;;;17.43;92.86;101027.13;6345727;28;20201;-77
2021/08/09 03:03:23;;;;;;;4.32;4.03;;;;;;;17.35;93.13;101022.88;6345762;28;20198;-77
2021/08/09 03:06:28;;;;;;;4.38;4.07;;;;;;;17.35;93.08;101028.41;6345304;28;20229;-77
2021/08/09 03:09:35;;;;;;;4.70;4.38;;;;;;;17.27;93.50;101023.34;6344788;28;20205;-77
2021/08/09 03:12:40;;;;;;;5.47;4.95;;;;;;;17.31;93.01;101030.00;6345637;28;20493;-77
2021/08/09 03:15:45;;;;;;;4.85;4.55;;;;;;;17.23;93.64;101038.69;6362721;28;20477;-77
2021/08/09 03:18:52;;;;;;;4.53;4.20;;;;;;;17.15;94.34;101050.19;6364104;28;20182;-77
2021/08/09 03:21:59;;;;;;;4.40;4.25;;;;;;;17.11;94.68;101043.50;6363928;28;20190;-78
2021/08/09 03:25:04;;;;;;;5.05;4.65;;;;;;;17.03;95.14;101046.69;6345454;28;20343;-77
2021/08/09 03:28:10;;;;;;;5.22;4.68;;;;;;;17.03;95.13;101040.34;6345121;28;20197;-77
2021/08/09 03:31:14;;;;;;;4.82;4.53;;;;;;;17.01;95.58;101043.38;6344121;28;20296;-77
2021/08/09 03:34:22;;;;;;;4.75;4.47;;;;;;;17.02;95.12;101045.06;6346293;28;20291;-77
2021/08/09 03:37:27;;;;;;;4.55;4.35;;;;;;;17.10;94.59;101044.59;6378993;28;20205;-77
2021/08/09 03:40:32;;;;;;;5.65;5.35;;;;;;;17.14;94.25;101053.19;6344873;28;20237;-77
2021/08/09 03:43:36;;;;;;;5.30;4.80;;;;;;;17.09;94.37;101055.88;6362767;28;20183;-77
2021/08/09 03:46:42;;;;;;;5.30;4.90;;;;;;;17.06;94.66;101054.47;6362453;28;20221;-77
2021/08/09 03:49:47;;;;;;;6.35;4.60;;;;;;;17.01;94.90;101048.88;6362903;28;20296;-78
2021/08/09 03:52:56;;;;;;;4.60;4.20;;;;;;;17.06;94.44;101056.38;6346068;28;20183;-77
2021/08/09 03:56:01;;;;;;;4.93;4.57;;;;;;;16.95;95.52;101049.09;6344235;28;20266;-77
2021/08/09 03:59:06;;;;;;;4.32;4.22;;;;;;;16.86;95.50;101045.91;6344511;28;20198;-78
2021/08/09 04:02:14;;;;;;;4.25;4.13;;;;;;;16.95;95.24;101044.38;6363625;28;20221;-78
2021/08/09 04:05:21;;;;;;;4.50;4.20;;;;;;;17.03;94.71;101056.88;6344654;28;20381;-77
2021/08/09 04:08:25;;;;;;;3.83;3.63;;;;;;;17.07;94.19;101056.16;6363313;28;20522;-77
2021/08/09 04:11:32;;;;;;;3.90;3.72;;;;;;;16.96;94.68;101054.34;6367983;28;20245;-77
2021/08/09 04:14:38;;;;;;;3.67;3.38;;;;;;;16.99;94.62;101067.59;6368011;28;20220;-77
2021/08/09 04:17:44;;;;;;;3.88;3.78;;;;;;;17.06;93.99;101062.75;6349331;28;20264;-77
2021/08/09 04:20:50;;;;;;;3.85;3.55;;;;;;;17.12;93.70;101071.91;6349185;28;20266;-77
2021/08/09 04:23:54;;;;;;;4.35;3.70;;;;;;;17.13;93.35;101062.56;6368223;28;20404;-77
2021/08/09 04:27:00;;;;;;;4.65;3.60;;;;;;;17.08;93.71;101066.06;6367028;28;20188;-77
2021/08/09 04:30:07;;;;;;;5.43;3.65;;;;;;;17.11;93.67;101071.09;6348638;28;20470;-77
2021/08/09 04:33:18;;;;;;;3.40;3.30;;;;;;;17.09;93.54;101067.75;6339552;28;20289;-77
2021/08/09 04:36:36;;;;;;;3.60;3.33;;;;;;;17.07;93.10;101069.94;6340575;28;20199;-77
2021/08/09 04:39:40;;;;;;;2.65;2.65;;;;;;;17.12;92.89;101072.75;6374353;27;20267;-78
2021/08/09 04:42:47;;;;;;;3.05;2.95;;;;;;;17.13;92.96;101079.13;6323143;28;20209;-77
2021/08/09 04:45:56;;;;;;;4.60;3.13;;;;;;;17.04;93.63;101080.63;6340436;28;20220;-77
2021/08/09 04:49:03;;;;;;;3.10;3.00;;;;;;;17.13;92.74;101088.19;6339135;28;20449;-77
2021/08/09 04:52:09;;;;;;;3.10;2.90;;;;;;;17.14;92.39;101092.63;6339618;28;20218;-77
2021/08/09 04:55:14;;;;;;;3.38;3.20;;;;;;;17.12;93.16;101094.81;6322895;28;20199;-78
2021/08/09 04:58:20;;;;;;;3.00;2.90;;;;;;;17.14;92.85;101097.31;6340119;28;20198;-77
2021/08/09 05:01:26;;;;;;;2.50;2.45;;;;;;;17.25;91.19;101091.69;6339502;28;20269;-77
2021/08/09 05:04:30;;;;;;;2.33;2.22;;;;;;;17.34;90.52;101103.94;6339568;28;20387;-77
2021/08/09 05:07:37;;;;;;;2.42;2.22;;;;;;;17.34;89.26;101109.47;6341234;28;20183;-77
2021/08/09 05:10:46;;;;;;;2.50;2.30;;;;;;;17.33;88.85;101106.97;6340010;28;20183;-77
2021/08/09 05:13:52;;;;;;;2.42;2.22;;;;;;;17.32;89.86;101111.63;6338720;28;20279;-75
2021/08/09 05:16:58;;;;;;;3.40;2.65;;;;;;;17.32;89.75;101103.38;6339154;28;20256;-76
2021/08/09 05:20:03;;;;;;;2.67;2.58;;;;;;;17.31;89.84;101109.97;6321023;28;20234;-78
2021/08/09 05:23:08;;;;;;;3.00;2.80;;;;;;;17.42;89.31;101108.19;6339240;28;20187;-76
2021/08/09 05:26:12;;;;;;;5.13;2.47;;;;;;;17.36;89.72;101110.03;6339234;28;20233;-76
2021/08/09 05:29:17;;;;;;;2.75;2.58;;;;;;;17.41;88.94;101104.59;6337948;28;20189;-76
2021/08/09 05:32:21;;;;;;;2.78;2.58;;;;;;;17.48;88.98;101110.75;6338014;28;20241;-76
2021/08/09 05:35:26;;;;;;;2.50;2.30;;;;;;;17.56;88.67;101116.94;6337791;28;20426;-76
2021/08/09 05:38:31;;;;;;;2.90;2.50;;;;;;;17.66;88.46;101111.56;6340740;28;20214;-78
2021/08/09 05:41:38;;;;;;;2.33;2.30;;;;;;;17.77;88.01;101107.84;6321242;28;20392;-78
2021/08/09 05:44:43;;;;;;;2.38;2.38;;;;;;;17.75;88.73;101110.00;6321286;28;20405;-78
2021/08/09 05:47:48;;;;;;;3.88;2.22;;;;;;;17.90;88.32;101112.94;6321706;28;20490;-77
2021/08/09 05:50:52;;;;;;;2.38;2.30;;;;;;;17.98;87.87;101109.72;6339154;28;20506;-77
2021/08/09 05:53:58;;;;;;;2.70;2.55;;;;;;;17.88;88.61;101118.72;6355818;28;20218;-78
2021/08/09 05:57:03;;;;;;;2.20;2.20;;;;;;;17.84;88.46;101116.75;6321609;28;20230;-78
2021/08/09 06:00:12;;;;;;;2.35;2.25;;;;;;;17.91;88.67;101128.41;6322348;28;20215;-78
2021/08/09 06:03:23;;;;;;;3.75;2.47;;;;;;;18.06;87.79;101128.59;6339730;28;20254;-77
2021/08/09 06:06:33;;;;;;;4.07;2.53;;;;;;;18.08;87.16;101131.91;6321180;28;20221;-77
2021/08/09 06:09:52;;;;;;;2.30;2.20;;;;;;;18.22;87.00;101122.16;6321826;28;20199;-78
2021/08/09 06:12:58;;;;;;;3.20;3.00;;;;;;;18.32;86.15;101121.41;6320493;28;20229;-78
2021/08/09 06:16:04;;;;;;;6.63;2.50;;;;;;;18.43;85.94;101123.19;6320918;28;20205;-77
2021/08/09 06:19:14;;;;;;;2.78;2.67;;;;;;;18.55;85.03;101127.47;6337985;28;20183;-76
2021/08/09 06:22:18;;;;;;;2.45;2.17;;;;;;;18.58;85.12;101126.97;6319324;28;20210;-77
2021/08/09 06:25:27;;;;;;;2.20;2.10;;;;;;;18.63;84.97;101129.75;6320157;28;20183;-76
2021/08/09 06:28:31;;;;;;;4.68;2.10;;;;;;;18.67;84.44;101130.88;6339756;28;20183;-76
2021/08/09 06:31:39;;;;;;;3.50;2.00;;;;;;;18.73;84.19;101145.59;6318239;28;20549;-77
2021/08/09 06:34:46;;;;;;;2.13;2.13;;;;;;;18.75;84.04;101137.88;6320190;28;20255;-77
2021/08/09 06:37:54;;;;;;;2.10;2.00;;;;;;;18.73;84.01;101140.91;6352764;28;20402;-77
2021/08/09 06:40:59;;;;;;;2.17;2.17;;;;;;;18.75;84.14;101144.22;6318555;28;20265;-76
2021/08/09 06:44:10;;;;;;;2.40;2.17;;;;;;;18.79;83.91;101143.72;6320219;28;20202;-76
2021/08/09 06:47:19;;;;;;;2.08;2.08;;;;;;;18.87;84.20;101154.28;6337908;28;20190;-77
2021/08/09 06:50:24;;;;;;;2.50;2.25;;;;;;;18.86;84.66;101152.59;6318565;28;20494;-76
2021/08/09 06:53:28;;;;;;;2.42;2.20;;;;;;;18.87;84.52;101157.88;6319385;28;20328;-76
2021/08/09 06:56:35;;;;;;;2.75;2.10;;;;;;;18.85;84.94;101159.25;6337401;28;20236;-76
2021/08/09 06:59:39;;;;;;;6.53;2.50;;;;;;;18.97;84.54;101157.13;6318703;28;20554;-76
2021/08/09 07:02:44;;;;;;;2.33;2.20;;;;;;;19.05;84.17;101165.78;6318845;28;20514;-76
2021/08/09 07:05:54;;;;;;;2.63;2.53;;;;;;;19.03;84.10;101172.66;6336783;28;20182;-77
2021/08/09 07:09:03;;;;;;;4.20;2.13;;;;;;;19.12;83.62;101171.06;6318462;28;20198;-77
2021/08/09 07:12:12;;;;;;;4.97;2.10;;;;;;;19.10;83.69;101184.34;6319895;28;20211;-76
2021/08/09 07:15:16;;;;;;;2.25;2.20;;;;;;;19.16;83.28;101183.25;6335989;28;20480;-77
2021/08/09 07:18:21;;;;;;;3.90;2.17;;;;;;;19.11;83.59;101180.44;6318679;28;20206;-77
2021/08/09 07:21:28;;;;;;;2.22;2.13;;;;;;;19.15;83.72;101182.44;6320420;28;20198;-77
2021/08/09 07:24:36;;;;;;;2.95;2.17;;;;;;;19.22;82.95;101194.09;6320343;28;20265;-77
2021/08/09 07:27:47;;;;;;;2.30;2.10;;;;;;;19.25;81.69;101198.28;6321352;28;20277;-77
2021/08/09 07:30:53;;;;;;;2.22;2.22;;;;;;;19.29;81.90;101188.34;6318075;28;20478;-77
2021/08/09 07:33:58;;;;;;;3.35;2.22;;;;;;;19.26;82.27;101197.16;6341054;28;20249;-77
2021/08/09 07:37:08;;;;;;;2.67;1.90;;;;;;;19.35;81.80;101198.34;6343555;28;20383;-77
2021/08/09 07:40:13;;;;;;;3.05;2.13;;;;;;;19.35;81.49;101203.88;6362274;28;20189;-76
2021/08/09 07:43:20;;;;;;;2.25;2.15;;;;;;;19.39;81.32;101199.50;6345086;28;20209;-76
2021/08/09 07:46:31;;;;;;;2.78;2.13;;;;;;;19.44;81.21;101196.75;6382371;27;20458;-76
2021/08/09 07:49:38;;;;;;;2.53;2.42;;;;;;;19.53;81.10;101194.34;6347846;28;20198;-76
2021/08/09 07:52:42;;;;;;;2.60;2.50;;;;;;;19.55;79.70;101190.19;6347669;28;20249;-76
2021/08/09 07:55:47;;;;;;;3.30;2.30;;;;;;;19.58;79.88;101197.13;6349205;28;20303;-77
2021/08/09 07:58:54;;;;;;;3.60;2.25;;;;;;;19.66;79.63;101191.94;6348702;28;20198;-77
2021/08/09 08:02:01;;;;;;;2.47;2.30;;;;;;;19.71;79.50;101191.13;6347492;28;20243;-77
2021/08/09 08:05:07;;;;;;;2.55;2.22;;;;;;;19.92;79.47;101199.28;6347743;28;20410;-77
2021/08/09 08:08:14;;;;;;;2.05;1.95;;;;;;;20.08;79.43;101196.56;6365539;28;20462;-77
2021/08/09 08:11:19;;;;;;;2.53;2.38;;;;;;;20.22;76.85;101194.94;6348437;28;20202;-77
2021/08/09 08:14:25;;;;;;;3.38;2.10;;;;;;;20.38;77.80;101203.06;6347709;28;20225;-77
2021/08/09 08:17:33;;;;;;;2.25;2.05;;;;;;;20.47;78.04;101195.03;6347415;28;20273;-77
2021/08/09 08:20:39;;;;;;;6.88;2.50;;;;;;;20.63;77.70;101188.41;6347639;28;20197;-77
2021/08/09 08:23:43;;;;;;;2.75;2.58;;;;;;;20.76;77.32;101190.66;6347464;28;20372;-77
2021/08/09 08:26:47;;;;;;;2.40;2.30;;;;;;;20.88;76.52;101191.22;6347674;28;20489;-77
2021/08/09 08:29:53;;;;;;;2.40;2.30;;;;;;;20.74;75.28;101189.28;6367555;28;20219;-77
2021/08/09 08:32:58;;;;;;;2.55;2.35;;;;;;;20.87;74.60;101184.03;6348370;28;20322;-77
2021/08/09 08:36:02;;;;;;;2.20;2.10;;;;;;;20.97;73.87;101184.03;6382341;27;20230;-77
2021/08/09 08:39:10;;;;;;;2.30;2.20;;;;;;;20.96;73.75;101176.78;6347389;28;20205;-77
2021/08/09 08:42:15;;;;;;;2.13;2.13;;;;;;;21.03;73.36;101180.13;6347019;28;20494;-77
2021/08/09 08:45:23;;;;;;;3.42;2.17;;;;;;;21.16;73.26;101182.38;6346866;28;20258;-77
2021/08/09 08:48:33;;;;;;;2.13;2.10;;;;;;;21.18;73.31;101190.44;6347340;28;20235;-77
2021/08/09 08:51:57;;;;;;;2.10;2.00;;;;;;;21.15;72.45;101194.59;6346464;28;20230;-77
2021/08/09 08:55:01;;;;;;;1.98;1.98;;;;;;;21.17;72.54;101189.59;6345730;28;20627;-77
2021/08/09 08:58:05;;;;;;;2.47;2.28;;;;;;;21.08;71.05;101191.25;6365525;28;20182;-77
2021/08/09 09:01:33;;;;;;;2.20;2.10;;;;;;;21.11;70.48;101190.69;6364800;28;20182;-77
2021/08/09 09:04:39;;;;;;;3.50;1.77;;;;;;;21.04;70.43;101190.13;6364363;28;20465;-77
2021/08/09 09:07:45;;;;;;;6.30;2.25;;;;;;;21.14;69.86;101190.13;6365186;28;20219;-77
2021/08/09 09:10:52;;;;;;;2.50;2.40;;;;;;;21.12;69.65;101186.81;6365295;28;20188;-77
2021/08/09 09:13:57;;;;;;;1.70;1.60;;;;;;;21.16;68.40;101198.19;6363831;28;20378;-77
2021/08/09 09:17:04;;;;;;;3.10;2.78;;;;;;;21.23;68.77;101204.28;6365292;28;20189;-77
2021/08/09 09:20:26;;;;;;;2.45;1.65;;;;;;;21.32;67.31;101199.84;6365411;28;20182;-77
2021/08/09 09:23:32;;;;;;;2.83;2.30;;;;;;;21.34;67.84;101194.03;6364377;28;20186;-77
2021/08/09 09:26:38;;;;;;;1.77;1.77;;;;;;;21.26;66.76;101200.13;6365162;28;20201;-77
2021/08/09 09:29:43;;;;;;;2.08;1.92;;;;;;;21.32;67.24;101179.56;6365344;28;20219;-77
2021/08/09 09:32:59;;;;;;;1.83;1.73;;;;;;;21.43;68.10;101186.78;6364574;28;20259;-77
2021/08/09 09:36:06;;;;;;;1.60;1.60;;;;;;;21.34;67.01;101185.69;6363810;28;20393;-77
2021/08/09 09:39:26;;;;;;;3.28;1.65;;;;;;;21.38;67.84;101197.88;6364939;28;20249;-77
2021/08/09 09:42:34;;;;;;;4.85;2.13;;;;;;;21.41;68.16;101191.78;6364145;28;20204;-77
2021/08/09 09:45:50;;;;;;;2.20;1.83;;;;;;;21.58;68.16;101181.19;6363855;28;20190;-78
2021/08/09 09:49:00;;;;;;;3.35;1.83;;;;;;;21.59;69.00;101180.09;6363517;28;20412;-77
2021/08/09 09:52:07;;;;;;;1.80;1.73;;;;;;;21.63;68.45;101186.72;6364011;28;20212;-77
2021/08/09 09:55:15;;;;;;;2.20;1.60;;;;;;;21.58;68.21;101182.03;6364007;28;20213;-77
2021/08/09 09:58:20;;;;;;;2.67;1.90;;;;;;;21.61;68.29;101188.97;6363983;28;20319;-78
2021/08/09 10:01:24;;;;;;;1.90;1.83;;;;;;;21.60;68.62;101187.28;6363683;28;20230;-77
2021/08/09 10:04:32;;;;;;;2.67;1.77;;;;;;;21.56;66.36;101186.19;6363659;28;20186;-77
2021/08/09 10:07:37;;;;;;;4.03;1.83;;;;;;;21.51;65.07;101188.97;6364132;28;20182;-77
2021/08/09 10:10:45;;;;;;;1.70;1.70;;;;;;;21.64;65.73;101189.25;6363552;28;20249;-78
2021/08/09 10:13:52;;;;;;;1.65;1.65;;;;;;;21.61;63.96;101200.06;6364462;28;20182;-77
2021/08/09 10:16:57;;;;;;;3.92;1.90;;;;;;;21.73;64.93;101197.81;6363741;28;20182;-77
2021/08/09 10:20:06;;;;;;;1.80;1.60;;;;;;;21.82;65.69;101196.13;6363491;28;20209;-78
2021/08/09 10:23:10;;;;;;;2.35;1.95;;;;;;;21.84;64.76;101199.44;6363735;28;20280;-77
2021/08/09 10:26:37;;;;;;;2.00;1.90;;;;;;;21.87;66.41;101196.13;6362290;28;20186;-77
2021/08/09 10:30:14;;;;;;;1.70;1.70;;;;;;;21.81;64.26;101205.56;6363444;28;20281;-78
2021/08/09 10:33:48;;;;;;;1.73;1.63;;;;;;;21.93;64.83;101197.75;6362895;28;20240;-77
2021/08/09 10:37:15;;;;;;;1.65;1.65;;;;;;;22.03;65.77;101197.75;6362647;28;20374;-77
2021/08/09 10:40:23;;;;;;;3.22;1.60;;;;;;;22.17;64.16;101186.84;6345436;28;20197;-76
2021/08/09 10:43:28;;;;;;;5.45;1.80;;;;;;;22.09;63.48;101196.59;6361564;28;20235;-77
2021/08/09 10:46:36;;;;;;;2.00;1.90;;;;;;;22.00;64.25;101189.97;6362709;28;20255;-77
2021/08/09 10:49:52;;;;;;;1.98;1.75;;;;;;;21.93;63.38;101194.97;6362183;28;20213;-77
2021/08/09 10:52:59;;;;;;;1.88;1.77;;;;;;;21.94;63.92;101204.16;6362595;28;20182;-79
2021/08/09 10:56:04;;;;;;;2.03;1.92;;;;;;;21.98;64.06;101208.03;6361163;28;20265;-76
2021/08/09 10:59:08;;;;;;;2.20;2.10;;;;;;;22.02;63.58;101206.34;6363197;28;20210;-78
2021/08/09 11:02:26;;;;;;;1.90;1.80;;;;;;;21.98;63.05;101203.31;6362195;28;20186;-77
2021/08/09 11:05:30;;;;;;;3.17;1.77;;;;;;;22.04;63.12;101193.84;6361769;28;20382;-77
2021/08/09 11:08:36;;;;;;;2.15;1.70;;;;;;;21.96;62.49;101197.19;6361548;28;20407;-77
2021/08/09 11:12:13;;;;;;;2.28;1.70;;;;;;;21.96;62.98;101202.75;6363418;28;20182;-77
2021/08/09 11:15:19;;;;;;;2.03;1.92;;;;;;;22.09;63.47;101207.72;6361401;28;20410;-77
2021/08/09 11:18:23;;;;;;;2.38;1.80;;;;;;;22.24;62.11;101199.28;6363696;28;20182;-77
2021/08/09 11:21:28;;;;;;;2.65;2.05;;;;;;;22.38;62.80;101205.91;6369340;28;20189;-77
2021/08/09 11:24:37;;;;;;;1.63;1.63;;;;;;;22.51;59.84;101214.72;6368266;28;20414;-77
2021/08/09 11:28:02;;;;;;;2.67;1.80;;;;;;;22.52;60.06;101210.84;6370099;28;20190;-78
2021/08/09 11:31:08;;;;;;;1.70;1.70;;;;;;;22.43;60.94;101208.66;6366817;28;20216;-77
2021/08/09 11:34:13;;;;;;;4.28;1.48;;;;;;;22.40;60.96;101203.66;6366500;28;20245;-77
2021/08/09 11:37:17;;;;;;;1.65;1.65;;;;;;;22.26;59.46;101210.16;6366567;28;20213;-77
2021/08/09 11:40:37;;;;;;;3.50;2.00;;;;;;;22.29;60.84;101213.16;6367434;28;20186;-77
2021/08/09 11:43:42;;;;;;;2.13;2.10;;;;;;;22.24;60.85;101223.47;6366566;28;20335;-77
2021/08/09 11:46:47;;;;;;;2.00;1.90;;;;;;;22.21;61.72;101215.72;6366590;28;20193;-77
2021/08/09 11:49:56;;;;;;;3.80;2.08;;;;;;;22.22;61.60;101215.44;6368954;28;20189;-77
2021/08/09 11:53:00;;;;;;;2.38;2.28;;;;;;;22.22;62.76;101223.78;6367437;28;20246;-77
2021/08/09 11:56:11;;;;;;;2.50;2.40;;;;;;;22.26;63.11;101230.41;6367142;28;20210;-77
2021/08/09 11:59:19;;;;;;;2.58;2.47;;;;;;;22.31;63.75;101215.69;6367274;28;20188;-77
2021/08/09 12:02:23;;;;;;;5.05;2.55;;;;;;;22.26;63.90;101226.81;6365655;28;20193;-77
2021/08/09 12:05:27;;;;;;;3.15;2.30;;;;;;;22.36;64.91;101230.38;6365548;28;20349;-77
2021/08/09 12:08:50;;;;;;;5.70;2.72;;;;;;;22.37;66.65;101226.47;6366791;28;20183;-77
2021/08/09 12:11:59;;;;;;;2.67;2.47;;;;;;;22.44;65.22;101226.97;6365757;28;20479;-77
2021/08/09 12:15:04;;;;;;;2.45;2.35;;;;;;;22.56;63.73;101217.47;6366832;28;20181;-77
2021/08/09 12:18:22;;;;;;;2.22;2.13;;;;;;;22.58;63.06;101226.34;6366923;28;20375;-77
2021/08/09 12:21:33;;;;;;;2.70;2.60;;;;;;;22.60;62.88;101224.13;6366438;28;20227;-77
2021/08/09 12:24:39;;;;;;;17.92;2.90;;;;;;;22.72;62.66;101216.31;6365532;28;20183;-77
2021/08/09 12:27:45;;;;;;;2.53;2.33;;;;;;;22.88;62.76;101209.53;6365872;28;20198;-77
2021/08/09 12:30:51;;;;;;;2.47;2.45;;;;;;;23.09;62.21;101208.22;6364149;28;20344;-77
2021/08/09 12:33:59;;;;;;;6.20;2.15;;;;;;;23.03;58.82;101218.56;6366112;28;20572;-77
2021/08/09 12:37:10;;;;;;;1.98;1.98;;;;;;;23.04;58.56;101225.78;6365008;28;20536;-77
2021/08/09 12:40:18;;;;;;;4.57;2.00;;;;;;;23.12;59.14;101232.69;6366014;28;20189;-78
2021/08/09 12:43:27;;;;;;;2.42;2.20;;;;;;;23.17;58.75;101229.84;6348162;28;20461;-78
2021/08/09 12:46:33;;;;;;;2.25;2.15;;;;;;;23.12;59.62;101232.69;6367566;28;20218;-78
2021/08/09 12:49:40;;;;;;;4.25;2.40;;;;;;;22.97;59.38;101236.44;6348629;28;20239;-78
2021/08/09 12:52:44;;;;;;;3.25;2.10;;;;;;;22.86;59.30;101243.16;6366728;28;20182;-78
2021/08/09 12:55:51;;;;;;;2.20;2.10;;;;;;;22.76;59.87;101256.31;6365403;28;20517;-78
2021/08/09 12:58:57;;;;;;;2.78;2.58;;;;;;;22.72;60.86;101260.81;6366774;28;20189;-77
2021/08/09 13:02:01;;;;;;;2.13;2.10;;;;;;;22.53;62.29;101273.66;6365175;28;20182;-78
2021/08/09 13:05:06;;;;;;;2.30;2.20;;;;;;;22.45;63.39;101273.16;6364286;28;20473;-77
2021/08/09 13:08:12;;;;;;;3.22;2.03;;;;;;;22.53;64.21;101268.09;6364945;28;20186;-77
2021/08/09 13:11:18;;;;;;;2.50;2.30;;;;;;;22.31;66.70;101266.56;6365006;28;20249;-78
2021/08/09 13:14:28;;;;;;;2.22;2.13;;;;;;;22.29;67.33;101274.31;6363745;28;20205;-76
2021/08/09 13:17:35;;;;;;;3.45;2.17;;;;;;;22.33;67.85;101269.88;6364582;28;20238;-76
2021/08/09 13:20:39;;;;;;;3.55;2.55;;;;;;;22.33;67.11;101269.88;6363522;28;20572;-76
2021/08/09 13:23:46;;;;;;;2.78;2.67;;;;;;;22.44;67.00;101273.44;6364953;28;20245;-76
2021/08/09 13:26:51;;;;;;;2.42;2.42;;;;;;;22.43;66.25;101282.88;6364674;28;20198;-76
2021/08/09 13:29:58;;;;;;;2.83;2.40;;;;;;;22.40;64.10;101289.84;6363359;28;20182;-76
2021/08/09 13:33:02;;;;;;;3.72;2.50;;;;;;;22.26;65.22;101302.69;6364123;28;20532;-77
2021/08/09 13:36:08;;;;;;;2.58;2.13;;;;;;;22.27;65.82;101315.47;6363875;28;20206;-77
2021/08/09 13:39:13;;;;;;;2.80;2.40;;;;;;;22.29;63.37;101318.78;6364717;28;20213;-77
2021/08/09 13:42:18;;;;;;;2.75;2.50;;;;;;;22.22;63.59;101323.81;6364269;28;20227;-77
2021/08/09 13:45:25;;;;;;;2.65;2.45;;;;;;;22.30;64.61;101309.34;6365969;28;20181;-77
2021/08/09 13:48:30;;;;;;;2.47;2.38;;;;;;;22.35;62.91;101300.16;6366978;28;20205;-77
2021/08/09 13:51:34;;;;;;;2.55;2.45;;;;;;;22.53;63.07;101307.03;6366631;28;20182;-77
2021/08/09 13:54:41;;;;;;;2.70;2.38;;;;;;;22.57;61.92;101308.13;6365483;28;20182;-77
2021/08/09 13:57:45;;;;;;;2.50;2.30;;;;;;;22.45;62.34;101314.00;6364442;28;20213;-78
2021/08/09 14:00:52;;;;;;;2.38;2.20;;;;;;;22.38;60.46;101300.44;6364228;28;20182;-77
2021/08/09 14:03:57;;;;;;;2.72;2.42;;;;;;;22.53;59.66;101302.31;6363887;28;20186;-77
2021/08/09 14:07:01;;;;;;;2.17;2.05;;;;;;;22.58;59.49;101288.38;6362660;28;20311;-76
2021/08/09 14:10:07;;;;;;;2.90;2.00;;;;;;;22.55;57.40;101294.50;6363049;28;20213;-77
2021/08/09 14:13:14;;;;;;;4.32;2.05;;;;;;;22.64;57.90;101275.31;6362931;28;20461;-77
2021/08/09 14:16:19;;;;;;;2.42;2.30;;;;;;;22.70;58.30;101286.09;6362954;28;20182;-77
2021/08/09 14:19:31;;;;;;;2.00;2.00;;;;;;;22.77;59.00;101291.38;6343729;28;20233;-78
2021/08/09 14:22:38;;;;;;;9.00;2.20;;;;;;;22.69;60.25;101294.75;6343775;28;20229;-77
2021/08/09 14:25:44;;;;;;;11.85;3.10;;;;;;;22.79;62.54;101300.25;6344943;28;20229;-77
2021/08/09 14:28:49;;;;;;;6.15;3.10;;;;;;;22.65;66.61;101310.34;6343620;28;20288;-77
2021/08/09 14:31:55;;;;;;;2.80;2.60;;;;;;;22.52;68.61;101300.63;6343776;28;20311;-77